createdAt,value
2022-09-26T00:02:34.745Z,1.25
2022-09-26T00:05:26.629Z,1.50
2022-09-26T00:08:18.636Z,1.50
2022-09-26T00:11:11.208Z,1.40
2022-09-26T00:14:04.483Z,1.50
2022-09-26T00:16:55.804Z,1.40
2022-09-26T00:22:26.736Z,1.45
2022-09-26T00:25:18.181Z,1.37
2022-09-26T00:28:09.323Z,1.30
2022-09-26T00:31:04.984Z,1.20
2022-09-26T00:36:38.437Z,1.10
2022-09-26T00:42:10.598Z,1.20
2022-09-26T00:45:03.252Z,1.32
2022-09-26T00:47:59.673Z,1.37
2022-09-26T00:53:34.047Z,1.47
2022-09-26T00:56:27.896Z,1.00
2022-09-26T00:59:23.210Z,1.00
2022-09-26T01:02:16.486Z,1.27
2022-09-26T01:05:11.522Z,1.37
2022-09-26T01:08:04.109Z,1.20
2022-09-26T01:10:55.513Z,1.50
2022-09-26T01:13:48.212Z,1.50
2022-09-26T01:16:42.998Z,1.50
2022-09-26T01:19:37.587Z,1.32
2022-09-26T01:22:43.242Z,1.47
2022-09-26T01:25:42.573Z,1.80
2022-09-26T01:31:20.376Z,1.42
2022-09-26T01:34:14.540Z,1.65
2022-09-26T01:37:10.303Z,1.07
2022-09-26T01:40:06.993Z,1.37
2022-09-26T01:45:47.578Z,1.22
2022-09-26T01:48:42.200Z,1.32
2022-09-26T01:51:36.965Z,1.20
2022-09-26T01:54:31.571Z,0.90
2022-09-26T02:00:09.017Z,1.00
2022-09-26T02:03:04.367Z,0.98
2022-09-26T02:05:58.938Z,0.90
2022-09-26T02:08:53.774Z,1.20
2022-09-26T02:14:26.281Z,1.30
2022-09-26T02:20:00.995Z,1.30
2022-09-26T02:22:52.689Z,1.30
2022-09-26T02:28:23.185Z,1.47
2022-09-26T02:31:19.141Z,1.40
2022-09-26T02:34:10.814Z,1.37
2022-09-26T02:37:04.568Z,1.17
2022-09-26T02:39:58.310Z,1.50
2022-09-26T02:42:54.253Z,1.10
2022-09-26T02:45:48.974Z,1.45
2022-09-26T02:48:51.662Z,1.00
2022-09-26T02:52:03.856Z,1.12
2022-09-26T02:54:59.860Z,1.30
2022-09-26T02:57:56.402Z,1.20
2022-09-26T03:00:55.259Z,1.32
2022-09-26T03:06:29.057Z,1.12
2022-09-26T03:09:24.027Z,1.00
2022-09-26T03:12:16.985Z,1.10
2022-09-26T03:15:12.661Z,1.30
2022-09-26T03:18:07.198Z,1.02
2022-09-26T03:20:58.455Z,1.10
2022-09-26T03:23:49.898Z,1.10
2022-09-26T03:26:42.466Z,1.00
2022-09-26T03:29:34.217Z,1.10
2022-09-26T03:32:26.081Z,1.20
2022-09-26T03:35:20.442Z,1.30
2022-09-26T03:38:14.478Z,1.10
2022-09-26T03:43:45.150Z,1.22
2022-09-26T03:46:40.066Z,1.37
2022-09-26T03:52:13.802Z,1.10
2022-09-26T03:55:06.864Z,1.20
2022-09-26T03:58:03.195Z,1.00
2022-09-26T04:00:55.744Z,1.20
2022-09-26T04:03:50.783Z,1.17
2022-09-26T04:06:40.572Z,1.30
2022-09-26T04:09:31.971Z,1.32
2022-09-26T04:12:23.876Z,1.50
2022-09-26T04:15:15.429Z,1.20
2022-09-26T04:18:08.631Z,1.10
2022-09-26T04:21:01.081Z,1.20
2022-09-26T04:23:53.779Z,1.17
2022-09-26T04:26:46.148Z,1.50
2022-09-26T04:29:37.671Z,1.30
2022-09-26T04:32:30.777Z,1.32
2022-09-26T04:35:39.626Z,1.47
2022-09-26T04:41:16.356Z,1.55
2022-09-26T04:46:46.600Z,1.60
2022-09-26T04:49:38.073Z,1.80
2022-09-26T04:52:29.985Z,1.45
2022-09-26T04:55:21.203Z,1.70
2022-09-26T04:58:12.498Z,1.75
2022-09-26T05:01:06.476Z,2.27
2022-09-26T05:03:59.319Z,1.00
2022-09-26T05:06:51.321Z,1.20
2022-09-26T05:09:46.779Z,1.10
2022-09-26T05:12:39.844Z,1.40
2022-09-26T05:15:31.259Z,1.22
2022-09-26T05:18:23.546Z,1.50
2022-09-26T05:21:14.317Z,2.42
2022-09-26T05:24:23.384Z,2.55
2022-09-26T05:27:15.456Z,2.25
2022-09-26T05:30:08.631Z,2.08
2022-09-26T05:32:59.910Z,2.58
2022-09-26T05:35:54.169Z,2.20
2022-09-26T05:41:30.222Z,2.05
2022-09-26T05:47:04.847Z,1.75
2022-09-26T05:49:56.255Z,1.98
2022-09-26T05:52:47.949Z,2.27
2022-09-26T05:55:40.564Z,2.08
2022-09-26T05:58:46.087Z,2.00
2022-09-26T06:04:24.912Z,2.62
2022-09-26T06:07:27.106Z,1.95
2022-09-26T06:10:18.878Z,1.55
2022-09-26T06:13:21.582Z,1.90
2022-09-26T06:16:18.651Z,1.50
2022-09-26T06:19:10.272Z,1.30
2022-09-26T06:22:01.745Z,1.67
2022-09-26T06:24:53.661Z,1.82
2022-09-26T06:27:45.103Z,1.75
2022-09-26T06:30:37.384Z,1.80
2022-09-26T06:33:36.384Z,1.25
2022-09-26T06:36:40.199Z,1.52
2022-09-26T06:39:33.256Z,1.45
2022-09-26T06:42:25.371Z,3.60
2022-09-26T06:45:34.804Z,1.62
2022-09-26T06:48:36.908Z,2.10
2022-09-26T06:51:32.968Z,1.80
2022-09-26T06:57:12.805Z,1.87
2022-09-26T07:02:47.061Z,1.50
2022-09-26T07:05:52.953Z,1.27
2022-09-26T07:14:16.940Z,1.22
2022-09-26T07:17:09.939Z,1.40
2022-09-26T07:22:51.312Z,1.77
2022-09-26T07:25:46.840Z,1.67
2022-09-26T07:31:20.929Z,2.90
2022-09-26T07:37:11.954Z,1.72
2022-09-26T07:40:03.720Z,2.00
2022-09-26T07:43:18.106Z,1.90
2022-09-26T07:48:59.767Z,2.45
2022-09-26T07:52:09.125Z,2.22
2022-09-26T07:55:13.296Z,2.20
2022-09-26T07:58:08.916Z,2.10
2022-09-26T08:01:19.134Z,2.30
2022-09-26T08:04:33.996Z,2.70
2022-09-26T08:07:27.443Z,2.22
2022-09-26T08:10:24.096Z,2.45
2022-09-26T08:13:33.888Z,2.50
2022-09-26T08:16:30.023Z,2.02
2022-09-26T08:19:24.497Z,2.00
2022-09-26T08:22:15.803Z,3.12
2022-09-26T08:25:13.024Z,2.55
2022-09-26T08:28:21.138Z,2.45
2022-09-26T08:33:52.215Z,1.70
2022-09-26T08:42:24.118Z,1.80
2022-09-26T08:45:47.845Z,1.85
2022-09-26T08:51:31.110Z,2.47
2022-09-26T08:57:06.017Z,2.25
2022-09-26T08:59:58.464Z,2.08
2022-09-26T09:02:58.876Z,1.95
2022-09-26T09:05:53.362Z,2.60
2022-09-26T09:11:30.052Z,2.37
2022-09-26T09:17:28.433Z,2.02
2022-09-26T09:23:55.335Z,1.98
2022-09-26T09:32:38.185Z,1.50
2022-09-26T09:35:40.634Z,1.37
2022-09-26T09:41:38.577Z,1.30
2022-09-26T09:44:36.500Z,1.27
2022-09-26T09:47:33.421Z,2.10
2022-09-26T09:50:30.463Z,1.60
2022-09-26T09:53:31.515Z,1.22
2022-09-26T09:56:28.042Z,1.20
2022-09-26T09:59:50.164Z,1.20
2022-09-26T10:02:47.118Z,1.50
2022-09-26T10:05:43.351Z,2.00
2022-09-26T10:11:23.478Z,1.30
2022-09-26T10:17:20.745Z,1.37
2022-09-26T10:20:42.864Z,1.57
2022-09-26T10:23:36.676Z,1.22
2022-09-26T10:26:33.345Z,1.37
2022-09-26T10:32:05.317Z,1.45
2022-09-26T10:35:17.388Z,1.72
2022-09-26T10:38:09.322Z,1.40
2022-09-26T10:41:03.815Z,1.62
2022-09-26T10:43:57.956Z,1.60
2022-09-26T10:47:17.013Z,1.70
2022-09-26T10:53:10.854Z,2.10
2022-09-26T10:56:05.790Z,1.90
2022-09-26T10:59:01.558Z,2.05
2022-09-26T11:01:56.167Z,2.22
2022-09-26T11:05:06.521Z,2.60
2022-09-26T11:07:59.929Z,2.58
2022-09-26T11:11:01.178Z,2.92
2022-09-26T11:14:05.863Z,2.72
2022-09-26T11:16:59.651Z,2.50
2022-09-26T11:19:55.208Z,2.70
2022-09-26T11:22:52.611Z,3.00
2022-09-26T11:25:58.184Z,2.27
2022-09-26T11:31:34.590Z,2.52
2022-09-26T11:34:32.198Z,2.30
2022-09-26T11:38:01.981Z,2.52
2022-09-26T11:41:02.996Z,2.40
2022-09-26T11:43:58.840Z,2.40
2022-09-26T11:47:18.641Z,2.50
2022-09-26T11:50:30.342Z,2.08
2022-09-26T11:53:40.810Z,2.20
2022-09-26T11:56:57.867Z,2.52
2022-09-26T12:00:00.264Z,2.27
2022-09-26T12:03:33.789Z,2.70
2022-09-26T12:06:33.778Z,2.50
2022-09-26T12:09:35.471Z,2.10
2022-09-26T12:12:31.472Z,2.77
2022-09-26T12:15:27.565Z,2.20
2022-09-26T12:18:22.711Z,2.58
2022-09-26T12:21:27.369Z,2.30
2022-09-26T12:27:03.841Z,1.80
2022-09-26T12:30:02.033Z,2.10
2022-09-26T12:33:14.180Z,2.12
2022-09-26T12:36:24.242Z,2.50
2022-09-26T12:39:47.435Z,2.10
2022-09-26T12:42:53.557Z,1.87
2022-09-26T12:46:12.523Z,1.95
2022-09-26T12:49:16.172Z,1.70
2022-09-26T12:52:12.130Z,1.37
2022-09-26T12:55:24.411Z,1.37
2022-09-26T12:58:26.251Z,1.45
2022-09-26T13:01:25.951Z,1.60
2022-09-26T13:04:28.756Z,1.62
2022-09-26T13:07:28.322Z,1.75
2022-09-26T13:10:28.956Z,1.32
2022-09-26T13:13:37.854Z,1.47
2022-09-26T13:16:34.278Z,2.05
2022-09-26T13:19:29.661Z,1.92
2022-09-26T13:22:28.644Z,1.50
2022-09-26T13:25:22.727Z,1.42
2022-09-26T13:28:17.965Z,1.55
2022-09-26T13:31:13.561Z,1.42
2022-09-26T13:34:10.476Z,1.45
2022-09-26T13:37:04.497Z,1.30
2022-09-26T13:39:58.957Z,1.12
2022-09-26T13:43:00.752Z,1.25
2022-09-26T13:45:56.580Z,1.55
2022-09-26T13:48:52.052Z,1.65
2022-09-26T13:51:49.519Z,1.50
2022-09-26T13:54:46.526Z,1.00
2022-09-26T13:57:43.849Z,0.90
2022-09-26T14:00:54.341Z,1.15
2022-09-26T14:03:46.337Z,1.20
2022-09-26T14:06:37.738Z,1.30
2022-09-26T14:09:41.432Z,1.10
2022-09-26T14:12:45.103Z,1.45
2022-09-26T14:15:59.807Z,1.40
2022-09-26T14:19:04.007Z,1.57
2022-09-26T14:22:03.555Z,1.45
2022-09-26T14:24:57.777Z,1.65
2022-09-26T14:27:49.639Z,1.60
2022-09-26T14:30:41.025Z,1.40
2022-09-26T14:33:33.303Z,1.45
2022-09-26T14:36:30.723Z,1.52
2022-09-26T14:39:32.022Z,1.10
2022-09-26T14:42:28.835Z,1.10
2022-09-26T14:45:27.222Z,1.47
2022-09-26T14:48:29.680Z,1.52
2022-09-26T14:51:30.505Z,1.20
2022-09-26T14:54:25.513Z,1.37
2022-09-26T14:57:24.342Z,1.20
2022-09-26T15:00:40.105Z,1.10
2022-09-26T15:03:31.980Z,1.00
2022-09-26T15:06:24.138Z,1.42
2022-09-26T15:09:21.387Z,1.02
2022-09-26T15:12:17.545Z,1.13
2022-09-26T15:15:19.465Z,1.20
2022-09-26T15:18:15.718Z,1.00
2022-09-26T15:21:28.365Z,1.17
2022-09-26T15:24:32.311Z,1.20
2022-09-26T15:27:27.257Z,1.07
2022-09-26T15:30:22.625Z,1.07
2022-09-26T15:33:18.656Z,1.10
2022-09-26T15:36:14.119Z,1.30
2022-09-26T15:39:10.092Z,1.20
2022-09-26T15:42:32.814Z,1.20
2022-09-26T15:45:30.371Z,1.10
2022-09-26T15:48:32.611Z,1.20
2022-09-26T15:51:26.623Z,1.22
2022-09-26T15:54:23.044Z,1.00
2022-09-26T15:57:14.367Z,1.00
2022-09-26T16:00:07.228Z,1.10
2022-09-26T16:02:59.885Z,1.02
2022-09-26T16:05:52.031Z,1.00
2022-09-26T16:08:44.152Z,1.10
2022-09-26T16:11:38.600Z,0.80
2022-09-26T16:14:40.571Z,1.10
2022-09-26T16:17:36.130Z,1.07
2022-09-26T16:20:30.962Z,0.95
2022-09-26T16:23:28.685Z,0.90
2022-09-26T16:26:31.445Z,0.93
2022-09-26T16:29:34.841Z,1.00
2022-09-26T16:32:25.973Z,0.98
2022-09-26T16:35:20.558Z,0.90
2022-09-26T16:38:22.742Z,0.90
2022-09-26T16:41:48.914Z,1.00
2022-09-26T16:44:30.327Z,0.82
2022-09-26T16:47:35.392Z,0.80
2022-09-26T16:50:31.279Z,0.72
2022-09-26T16:53:22.345Z,0.90
2022-09-26T16:56:16.706Z,0.72
2022-09-26T16:59:13.884Z,0.90
2022-09-26T17:02:07.728Z,0.98
2022-09-26T17:04:59.512Z,1.15
2022-09-26T17:07:51.764Z,0.90
2022-09-26T17:10:46.807Z,0.98
2022-09-26T17:13:40.043Z,0.70
2022-09-26T17:16:33.544Z,1.20
2022-09-26T17:19:27.681Z,0.98
2022-09-26T17:22:20.882Z,1.00
2022-09-26T17:25:15.026Z,1.30
2022-09-26T17:28:08.101Z,0.85
2022-09-26T17:31:02.095Z,1.80
2022-09-26T17:33:55.011Z,1.00
2022-09-26T17:36:50.242Z,0.90
2022-09-26T17:39:42.086Z,1.15
2022-09-26T17:42:33.758Z,0.80
2022-09-26T17:45:29.065Z,0.90
2022-09-26T17:48:24.713Z,0.93
2022-09-26T17:51:15.685Z,1.50
2022-09-26T17:54:08.164Z,1.55
2022-09-26T17:57:01.323Z,1.55
2022-09-26T17:59:54.325Z,1.10
2022-09-26T18:02:49.047Z,1.67
2022-09-26T18:05:41.626Z,2.05
2022-09-26T18:08:36.393Z,1.50
2022-09-26T18:11:28.214Z,1.17
2022-09-26T18:14:19.891Z,1.20
2022-09-26T18:17:15.175Z,1.37
2022-09-26T18:20:07.513Z,2.37
2022-09-26T18:22:59.120Z,1.10
2022-09-26T18:25:52.238Z,1.30
2022-09-26T18:28:43.587Z,1.50
2022-09-26T18:31:38.067Z,1.20
2022-09-26T18:34:29.397Z,1.25
2022-09-26T18:37:20.941Z,1.32
2022-09-26T18:40:15.882Z,1.15
2022-09-26T18:43:08.046Z,1.62
2022-09-26T18:45:59.891Z,1.00
2022-09-26T18:48:51.636Z,1.27
2022-09-26T18:51:43.738Z,1.17
2022-09-26T18:54:37.033Z,1.40
2022-09-26T19:00:11.129Z,1.22
2022-09-26T19:03:03.751Z,1.47
2022-09-26T19:05:59.006Z,2.02
2022-09-26T19:08:52.344Z,1.80
2022-09-26T19:14:27.168Z,1.52
2022-09-26T19:17:18.562Z,1.50
2022-09-26T19:22:49.009Z,1.42
2022-09-26T19:25:40.510Z,1.77
2022-09-26T19:28:34.707Z,1.92
2022-09-26T19:31:26.511Z,1.98
2022-09-26T19:34:19.421Z,1.85
2022-09-26T19:37:14.102Z,1.55
2022-09-26T19:40:10.987Z,1.82
2022-09-26T19:43:02.863Z,1.77
2022-09-26T19:45:56.303Z,2.02
2022-09-26T19:48:47.961Z,1.72
2022-09-26T19:51:41.026Z,1.67
2022-09-26T19:54:33.326Z,1.60
2022-09-26T19:57:25.349Z,1.55
2022-09-26T20:02:57.051Z,1.52
2022-09-26T20:05:50.361Z,1.62
2022-09-26T20:08:41.704Z,1.60
2022-09-26T20:11:33.354Z,1.60
2022-09-26T20:14:25.456Z,1.50
2022-09-26T20:17:21.297Z,1.82
2022-09-26T20:20:16.558Z,1.55
2022-09-26T20:23:12.489Z,1.57
2022-09-26T20:26:04.060Z,1.75
2022-09-26T20:28:55.304Z,2.65
2022-09-26T20:31:47.726Z,1.98
2022-09-26T20:37:22.156Z,2.25
2022-09-26T20:40:18.314Z,2.20
2022-09-26T20:43:14.657Z,1.90
2022-09-26T20:46:09.187Z,1.85
2022-09-26T20:49:03.467Z,2.25
2022-09-26T20:51:56.952Z,1.85
2022-09-26T20:57:29.337Z,1.55
2022-09-26T21:03:01.131Z,1.98
2022-09-26T21:08:32.073Z,1.60
2022-09-26T21:11:25.066Z,1.72
2022-09-26T21:14:16.661Z,1.67
2022-09-26T21:17:11.157Z,1.75
2022-09-26T21:20:03.458Z,2.00
2022-09-26T21:23:04.273Z,1.80
2022-09-26T21:25:55.554Z,1.50
2022-09-26T21:28:49.035Z,1.47
2022-09-26T21:31:41.766Z,1.95
2022-09-26T21:34:34.715Z,1.92
2022-09-26T21:37:26.743Z,1.60
2022-09-26T21:40:18.738Z,1.70
2022-09-26T21:43:13.174Z,2.10
2022-09-26T21:46:04.423Z,1.57
2022-09-26T21:48:55.934Z,1.95
2022-09-26T21:51:50.626Z,1.80
2022-09-26T21:57:25.414Z,1.50
2022-09-26T22:00:17.443Z,1.52
2022-09-26T22:03:09.141Z,1.35
2022-09-26T22:06:05.042Z,1.20
2022-09-26T22:08:54.394Z,1.90
2022-09-26T22:11:45.833Z,1.37
2022-09-26T22:14:37.724Z,1.50
2022-09-26T22:17:29.003Z,1.62
2022-09-26T22:20:20.666Z,1.20
2022-09-26T22:23:11.908Z,1.20
2022-09-26T22:26:02.966Z,1.50
2022-09-26T22:31:34.661Z,1.95
2022-09-26T22:34:26.521Z,1.60
2022-09-26T22:37:17.880Z,1.50
2022-09-26T22:42:52.622Z,1.20
2022-09-26T22:48:37.170Z,1.65
2022-09-26T22:51:29.078Z,1.35
2022-09-26T22:54:20.767Z,1.60
2022-09-26T22:57:12.349Z,1.40
2022-09-26T23:02:41.825Z,1.60
2022-09-26T23:08:13.035Z,1.60
2022-09-26T23:11:05.688Z,1.30
2022-09-26T23:13:56.961Z,1.60
2022-09-26T23:16:48.415Z,1.30
2022-09-26T23:22:26.819Z,1.10
2022-09-26T23:25:18.334Z,1.20
2022-09-26T23:28:09.539Z,1.27
2022-09-26T23:31:08.372Z,1.40
2022-09-26T23:33:59.995Z,1.30
2022-09-26T23:36:51.259Z,1.35
2022-09-26T23:39:42.933Z,1.10
2022-09-26T23:42:34.713Z,1.10
2022-09-26T23:45:27.244Z,1.55
2022-09-26T23:48:18.820Z,1.20
2022-09-26T23:51:10.822Z,1.27
2022-09-26T23:54:02.970Z,1.30
2022-09-26T23:56:54.480Z,1.20
